createdAt,value
2022-12-25T00:00:12.586Z,5.10
2022-12-25T00:00:21.143Z,5.10
2022-12-25T00:00:38.125Z,5.10
2022-12-25T00:00:47.624Z,5.10
2022-12-25T00:00:56.975Z,5.10
2022-12-25T00:01:06.438Z,5.10
2022-12-25T00:01:15.752Z,5.10
2022-12-25T00:01:25.186Z,5.10
2022-12-25T00:01:34.570Z,5.10
2022-12-25T00:01:43.970Z,5.10
2022-12-25T00:01:53.383Z,5.10
2022-12-25T00:02:02.798Z,5.20
2022-12-25T00:02:12.310Z,5.20
2022-12-25T00:02:21.788Z,5.20
2022-12-25T00:02:31.267Z,5.20
2022-12-25T00:02:40.619Z,5.20
2022-12-25T00:02:50.042Z,5.20
2022-12-25T00:02:59.515Z,5.30
2022-12-25T00:03:08.888Z,5.30
2022-12-25T00:03:27.719Z,5.30
2022-12-25T00:03:37.157Z,5.30
2022-12-25T00:03:46.474Z,5.30
2022-12-25T00:03:55.891Z,5.30
2022-12-25T00:04:05.244Z,5.30
2022-12-25T00:04:14.731Z,5.40
2022-12-25T00:04:24.032Z,5.30
2022-12-25T00:04:33.414Z,5.30
2022-12-25T00:04:42.829Z,5.40
2022-12-25T00:04:52.231Z,5.40
2022-12-25T00:05:01.614Z,5.30
2022-12-25T00:05:11.023Z,5.40
2022-12-25T00:05:20.420Z,5.40
2022-12-25T00:05:29.845Z,5.40
2022-12-25T00:05:39.277Z,5.40
2022-12-25T00:05:58.048Z,5.40
2022-12-25T00:06:07.521Z,5.40
2022-12-25T00:06:16.948Z,5.40
2022-12-25T00:06:26.367Z,5.40
2022-12-25T00:06:35.761Z,5.40
2022-12-25T00:06:45.216Z,5.40
2022-12-25T00:06:54.579Z,5.40
2022-12-25T00:07:03.983Z,5.40
2022-12-25T00:07:13.431Z,5.40
2022-12-25T00:07:22.851Z,5.40
2022-12-25T00:07:32.269Z,5.40
2022-12-25T00:07:41.832Z,5.40
2022-12-25T00:07:51.681Z,5.40
2022-12-25T00:08:01.092Z,5.40
2022-12-25T00:08:10.499Z,5.50
2022-12-25T00:08:19.938Z,5.40
2022-12-25T00:08:29.303Z,5.50
2022-12-25T00:08:48.145Z,5.50
2022-12-25T00:08:57.566Z,5.50
2022-12-25T00:09:07.073Z,5.50
2022-12-25T00:09:16.497Z,5.50
2022-12-25T00:09:25.990Z,5.50
2022-12-25T00:09:35.481Z,5.50
2022-12-25T00:09:44.881Z,5.50
2022-12-25T00:09:55.428Z,5.50
2022-12-25T00:10:04.844Z,5.50
2022-12-25T00:10:14.259Z,5.50
2022-12-25T00:10:23.666Z,5.50
2022-12-25T00:10:33.044Z,5.50
2022-12-25T00:10:45.352Z,5.50
2022-12-25T00:10:52.042Z,5.50
2022-12-25T00:11:01.482Z,5.50
2022-12-25T00:11:10.926Z,5.50
2022-12-25T00:11:20.337Z,5.50
2022-12-25T00:11:29.755Z,5.50
2022-12-25T00:11:39.136Z,5.50
2022-12-25T00:11:57.954Z,5.50
2022-12-25T00:12:07.370Z,5.50
2022-12-25T00:12:16.764Z,5.50
2022-12-25T00:12:26.157Z,5.50
2022-12-25T00:12:35.572Z,5.60
2022-12-25T00:12:44.961Z,5.60
2022-12-25T00:12:54.340Z,5.60
2022-12-25T00:13:03.728Z,5.60
2022-12-25T00:13:13.143Z,5.60
2022-12-25T00:13:22.533Z,5.60
2022-12-25T00:13:31.955Z,5.60
2022-12-25T00:13:41.417Z,5.60
2022-12-25T00:13:50.862Z,5.60
2022-12-25T00:14:00.256Z,5.60
2022-12-25T00:14:09.687Z,5.60
2022-12-25T00:14:19.098Z,5.60
2022-12-25T00:14:37.920Z,5.60
2022-12-25T00:14:47.323Z,5.60
2022-12-25T00:14:56.727Z,5.70
2022-12-25T00:15:06.153Z,5.70
2022-12-25T00:15:15.583Z,5.70
2022-12-25T00:15:24.975Z,5.70
2022-12-25T00:15:34.387Z,5.70
2022-12-25T00:15:43.814Z,5.70
2022-12-25T00:15:53.257Z,5.70
2022-12-25T00:16:02.660Z,5.70
2022-12-25T00:16:12.084Z,5.80
2022-12-25T00:16:21.502Z,5.80
2022-12-25T00:16:30.953Z,5.80
2022-12-25T00:16:40.268Z,5.80
2022-12-25T00:16:49.703Z,5.70
2022-12-25T00:16:59.100Z,5.80
2022-12-25T00:17:08.779Z,5.70
2022-12-25T00:17:27.773Z,5.80
2022-12-25T00:17:37.188Z,5.70
2022-12-25T00:17:46.608Z,5.70
2022-12-25T00:17:56.010Z,5.70
2022-12-25T00:18:05.402Z,5.70
2022-12-25T00:18:14.896Z,5.70
2022-12-25T00:18:24.313Z,5.70
2022-12-25T00:18:33.720Z,5.70
2022-12-25T00:18:43.162Z,5.70
2022-12-25T00:18:52.572Z,5.70
2022-12-25T00:19:01.961Z,5.70
2022-12-25T00:19:11.422Z,5.70
2022-12-25T00:19:20.820Z,5.70
2022-12-25T00:19:30.245Z,5.70
2022-12-25T00:19:39.645Z,5.70
2022-12-25T00:19:49.053Z,5.70
2022-12-25T00:20:07.848Z,5.70
2022-12-25T00:20:17.240Z,5.70
2022-12-25T00:20:26.671Z,5.70
2022-12-25T00:20:36.060Z,5.70
2022-12-25T00:20:45.447Z,5.70
2022-12-25T00:20:54.848Z,5.80
2022-12-25T00:21:04.256Z,5.80
2022-12-25T00:21:13.672Z,5.80
2022-12-25T00:21:23.110Z,5.80
2022-12-25T00:21:32.517Z,5.70
2022-12-25T00:21:41.918Z,5.80
2022-12-25T00:21:51.377Z,5.80
2022-12-25T00:22:00.758Z,5.80
2022-12-25T00:22:10.171Z,5.80
2022-12-25T00:22:19.586Z,5.80
2022-12-25T00:22:29.022Z,5.80
2022-12-25T00:22:47.820Z,5.80
2022-12-25T00:22:57.260Z,5.80
2022-12-25T00:23:06.669Z,5.80
2022-12-25T00:23:16.086Z,5.80
2022-12-25T00:23:25.468Z,5.80
2022-12-25T00:23:34.899Z,5.90
2022-12-25T00:23:44.305Z,5.90
2022-12-25T00:23:53.709Z,5.90
2022-12-25T00:24:03.151Z,5.90
2022-12-25T00:24:12.525Z,5.90
2022-12-25T00:24:21.964Z,5.90
2022-12-25T00:24:31.428Z,5.90
2022-12-25T00:24:40.850Z,5.90
2022-12-25T00:24:50.242Z,5.90
2022-12-25T00:24:59.652Z,5.90
2022-12-25T00:25:09.078Z,5.90
2022-12-25T00:25:27.876Z,5.90
2022-12-25T00:25:37.305Z,5.90
2022-12-25T00:25:46.721Z,5.90
2022-12-25T00:25:56.105Z,5.90
2022-12-25T00:26:05.497Z,5.80
2022-12-25T00:26:14.901Z,5.90
2022-12-25T00:26:24.276Z,5.90
2022-12-25T00:26:33.691Z,5.90
2022-12-25T00:26:43.113Z,5.90
2022-12-25T00:26:52.502Z,5.90
2022-12-25T00:27:01.930Z,5.90
2022-12-25T00:27:11.345Z,5.90
2022-12-25T00:27:20.761Z,5.90
2022-12-25T00:27:30.177Z,5.90
2022-12-25T00:27:39.565Z,5.80
2022-12-25T00:27:49.038Z,5.80
2022-12-25T00:28:07.827Z,5.80
2022-12-25T00:28:17.262Z,5.80
2022-12-25T00:28:26.674Z,5.80
2022-12-25T00:28:36.113Z,5.80
2022-12-25T00:28:45.448Z,5.80
2022-12-25T00:28:54.857Z,5.80
2022-12-25T00:29:04.250Z,5.80
2022-12-25T00:29:13.673Z,5.80
2022-12-25T00:29:23.092Z,5.80
2022-12-25T00:29:32.581Z,5.80
2022-12-25T00:29:41.975Z,5.80
2022-12-25T00:29:51.470Z,5.80
2022-12-25T00:30:00.900Z,5.80
2022-12-25T00:30:10.308Z,5.80
2022-12-25T00:30:19.697Z,5.80
2022-12-25T00:30:29.131Z,5.80
2022-12-25T00:30:47.928Z,5.80
2022-12-25T00:30:57.421Z,5.80
2022-12-25T00:31:06.783Z,5.80
2022-12-25T00:31:16.203Z,5.80
2022-12-25T00:31:25.725Z,5.80
2022-12-25T00:31:35.004Z,5.80
2022-12-25T00:31:44.512Z,5.80
2022-12-25T00:31:53.791Z,5.80
2022-12-25T00:32:03.237Z,5.80
2022-12-25T00:32:12.637Z,5.80
2022-12-25T00:32:22.057Z,5.80
2022-12-25T00:32:34.123Z,5.80
2022-12-25T00:32:43.536Z,5.80
2022-12-25T00:32:52.979Z,5.80
2022-12-25T00:33:02.384Z,5.80
2022-12-25T00:33:11.801Z,5.80
2022-12-25T00:33:21.224Z,5.80
2022-12-25T00:33:30.596Z,5.80
2022-12-25T00:33:40.004Z,5.80
2022-12-25T00:33:49.410Z,5.80
2022-12-25T00:33:58.795Z,5.80
2022-12-25T00:34:17.808Z,5.80
2022-12-25T00:34:27.233Z,5.80
2022-12-25T00:34:36.658Z,5.80
2022-12-25T00:34:46.113Z,5.80
2022-12-25T00:34:55.616Z,5.80
2022-12-25T00:35:05.010Z,5.80
2022-12-25T00:35:14.385Z,5.80
2022-12-25T00:35:23.808Z,5.80
2022-12-25T00:35:33.201Z,5.80
2022-12-25T00:35:42.590Z,5.80
2022-12-25T00:35:52.071Z,5.80
2022-12-25T00:36:01.480Z,5.80
2022-12-25T00:36:10.902Z,5.80
2022-12-25T00:36:20.344Z,5.80
2022-12-25T00:36:29.754Z,5.80
2022-12-25T00:36:41.921Z,5.80
2022-12-25T00:36:57.995Z,5.80
2022-12-25T00:37:07.389Z,5.80
2022-12-25T00:37:16.785Z,5.80
2022-12-25T00:37:26.195Z,5.80
2022-12-25T00:37:35.624Z,5.90
2022-12-25T00:37:45.041Z,5.90
2022-12-25T00:37:54.449Z,5.90
2022-12-25T00:38:03.854Z,5.80
2022-12-25T00:38:13.270Z,5.80
2022-12-25T00:38:22.681Z,5.80
2022-12-25T00:38:32.070Z,5.80
2022-12-25T00:38:41.477Z,5.80
2022-12-25T00:38:50.896Z,5.80
2022-12-25T00:39:00.267Z,5.80
2022-12-25T00:39:09.656Z,5.80
2022-12-25T00:39:19.048Z,5.80
2022-12-25T00:39:37.876Z,5.80
2022-12-25T00:39:47.280Z,5.80
2022-12-25T00:39:56.698Z,5.80
2022-12-25T00:40:06.103Z,5.80
2022-12-25T00:40:15.524Z,5.80
2022-12-25T00:40:24.975Z,5.80
2022-12-25T00:40:34.376Z,5.80
2022-12-25T00:40:43.804Z,5.80
2022-12-25T00:40:53.221Z,5.90
2022-12-25T00:41:02.625Z,5.80
2022-12-25T00:41:12.010Z,5.90
2022-12-25T00:41:21.468Z,5.90
2022-12-25T00:41:30.843Z,5.80
2022-12-25T00:41:40.269Z,5.80
2022-12-25T00:41:49.661Z,5.80
2022-12-25T00:41:59.093Z,5.80
2022-12-25T00:42:17.937Z,5.80
2022-12-25T00:42:27.327Z,5.80
2022-12-25T00:42:36.787Z,5.80
2022-12-25T00:42:46.197Z,5.80
2022-12-25T00:42:55.612Z,5.80
2022-12-25T00:43:05.022Z,5.80
2022-12-25T00:43:14.423Z,5.80
2022-12-25T00:43:23.847Z,5.80
2022-12-25T00:43:33.272Z,5.80
2022-12-25T00:43:42.697Z,5.80
2022-12-25T00:43:52.084Z,5.80
2022-12-25T00:44:01.481Z,5.80
2022-12-25T00:44:10.875Z,5.80
2022-12-25T00:44:20.309Z,5.80
2022-12-25T00:44:29.702Z,5.80
2022-12-25T00:44:39.132Z,5.80
2022-12-25T00:44:57.969Z,5.80
2022-12-25T00:45:07.370Z,5.80
2022-12-25T00:45:16.790Z,5.80
2022-12-25T00:45:26.231Z,5.80
2022-12-25T00:45:35.620Z,5.80
2022-12-25T00:45:45.064Z,5.80
2022-12-25T00:45:54.495Z,5.80
2022-12-25T00:46:03.893Z,5.80
2022-12-25T00:46:13.502Z,5.80
2022-12-25T00:46:22.615Z,5.80
2022-12-25T00:46:32.084Z,5.80
2022-12-25T00:46:41.498Z,5.80
2022-12-25T00:46:50.884Z,5.80
2022-12-25T00:47:00.254Z,5.80
2022-12-25T00:47:09.622Z,5.90
2022-12-25T00:47:19.085Z,5.80
2022-12-25T00:47:37.769Z,5.80
2022-12-25T00:47:47.169Z,5.80
2022-12-25T00:47:56.584Z,5.90
2022-12-25T00:48:05.989Z,5.90
2022-12-25T00:48:15.420Z,5.90
2022-12-25T00:48:24.845Z,5.90
2022-12-25T00:48:34.235Z,5.90
2022-12-25T00:48:43.646Z,5.90
2022-12-25T00:48:53.054Z,5.90
2022-12-25T00:49:02.487Z,5.80
2022-12-25T00:49:11.867Z,5.80
2022-12-25T00:49:21.313Z,5.80
2022-12-25T00:49:30.760Z,5.80
2022-12-25T00:49:40.158Z,5.80
2022-12-25T00:49:49.552Z,5.80
2022-12-25T00:49:58.953Z,5.80
2022-12-25T00:50:17.761Z,5.80
2022-12-25T00:50:27.182Z,5.90
2022-12-25T00:50:36.579Z,5.80
2022-12-25T00:50:46.146Z,5.80
2022-12-25T00:50:55.574Z,5.80
2022-12-25T00:51:05.002Z,5.80
2022-12-25T00:51:14.420Z,5.90
2022-12-25T00:51:24.151Z,5.80
2022-12-25T00:51:33.610Z,5.80
2022-12-25T00:51:43.037Z,5.90
2022-12-25T00:51:52.441Z,5.80
2022-12-25T00:52:01.897Z,5.90
2022-12-25T00:52:11.314Z,5.80
2022-12-25T00:52:20.736Z,5.80
2022-12-25T00:52:30.143Z,5.80
2022-12-25T00:52:39.524Z,5.80
2022-12-25T00:52:48.926Z,5.80
2022-12-25T00:53:07.979Z,5.80
2022-12-25T00:53:17.379Z,5.80
2022-12-25T00:53:26.787Z,5.80
2022-12-25T00:53:36.208Z,5.80
2022-12-25T00:53:45.622Z,5.80
2022-12-25T00:53:55.038Z,5.80
2022-12-25T00:54:04.441Z,5.80
2022-12-25T00:54:13.825Z,5.80
2022-12-25T00:54:23.257Z,5.80
2022-12-25T00:54:32.695Z,5.80
2022-12-25T00:54:42.166Z,5.80
2022-12-25T00:54:51.583Z,5.80
2022-12-25T00:55:01.024Z,5.80
2022-12-25T00:55:10.436Z,5.90
2022-12-25T00:55:19.832Z,5.90
2022-12-25T00:55:29.217Z,5.90
2022-12-25T00:55:48.030Z,5.90
2022-12-25T00:55:57.441Z,5.90
2022-12-25T00:56:06.865Z,5.90
2022-12-25T00:56:16.307Z,5.90
2022-12-25T00:56:25.734Z,5.90
2022-12-25T00:56:35.085Z,5.90
2022-12-25T00:56:44.519Z,5.90
2022-12-25T00:56:53.929Z,5.90
2022-12-25T00:57:03.328Z,5.90
2022-12-25T00:57:12.735Z,5.90
2022-12-25T00:57:22.128Z,5.90
2022-12-25T00:57:31.588Z,5.90
2022-12-25T00:57:40.998Z,5.90
2022-12-25T00:57:50.381Z,5.90
2022-12-25T00:57:59.791Z,5.90
2022-12-25T00:58:09.222Z,5.90
2022-12-25T00:58:18.791Z,5.90
2022-12-25T00:58:37.666Z,5.90
2022-12-25T00:58:47.032Z,5.90
2022-12-25T00:58:56.451Z,5.90
2022-12-25T00:59:05.858Z,5.90
2022-12-25T00:59:15.285Z,5.90
2022-12-25T00:59:24.702Z,5.90
2022-12-25T00:59:34.123Z,5.90
2022-12-25T00:59:43.525Z,5.90
2022-12-25T00:59:52.999Z,5.90
2022-12-25T01:00:02.380Z,5.90
2022-12-25T01:00:11.812Z,5.90
2022-12-25T01:00:21.213Z,5.90
2022-12-25T01:00:30.624Z,5.90
2022-12-25T01:00:40.083Z,5.90
2022-12-25T01:00:49.481Z,5.90
2022-12-25T01:00:58.922Z,5.90
2022-12-25T01:01:17.977Z,5.90
2022-12-25T01:01:27.207Z,5.90
2022-12-25T01:01:36.678Z,5.90
2022-12-25T01:01:46.080Z,5.90
2022-12-25T01:01:55.460Z,5.90
2022-12-25T01:02:04.870Z,5.90
2022-12-25T01:02:14.301Z,5.90
2022-12-25T01:02:23.776Z,5.90
2022-12-25T01:02:33.228Z,5.90
2022-12-25T01:02:42.500Z,5.90
2022-12-25T01:02:51.966Z,5.90
2022-12-25T01:03:01.394Z,5.90
2022-12-25T01:03:10.770Z,5.90
2022-12-25T01:03:20.124Z,5.90
2022-12-25T01:03:29.519Z,5.90
2022-12-25T01:03:38.827Z,5.90
2022-12-25T01:03:57.679Z,5.90
2022-12-25T01:04:07.169Z,5.90
2022-12-25T01:04:16.595Z,5.90
2022-12-25T01:04:26.038Z,5.90
2022-12-25T01:04:35.480Z,5.90
2022-12-25T01:04:44.958Z,5.90
2022-12-25T01:04:54.370Z,5.90
2022-12-25T01:05:03.816Z,5.90
2022-12-25T01:05:13.228Z,5.90
2022-12-25T01:05:22.635Z,5.90
2022-12-25T01:05:32.069Z,5.90
2022-12-25T01:05:41.505Z,5.90
2022-12-25T01:05:50.889Z,5.90
2022-12-25T01:06:00.431Z,5.90
2022-12-25T01:06:09.743Z,5.90
2022-12-25T01:06:19.216Z,5.90
2022-12-25T01:06:37.984Z,5.90
2022-12-25T01:06:47.406Z,5.90
2022-12-25T01:06:56.849Z,5.90
2022-12-25T01:07:06.276Z,5.90
2022-12-25T01:07:15.637Z,5.90
2022-12-25T01:07:25.061Z,5.90
2022-12-25T01:07:34.439Z,5.90
2022-12-25T01:07:43.879Z,5.90
2022-12-25T01:07:53.267Z,5.90
2022-12-25T01:08:05.766Z,5.90
2022-12-25T01:08:12.616Z,5.90
2022-12-25T01:08:22.064Z,5.90
2022-12-25T01:08:31.725Z,5.90
2022-12-25T01:08:41.305Z,5.90
2022-12-25T01:08:50.732Z,5.90
2022-12-25T01:09:00.154Z,5.90
2022-12-25T01:09:09.659Z,5.90
2022-12-25T01:09:19.073Z,5.90
2022-12-25T01:09:37.878Z,5.90
2022-12-25T01:09:47.292Z,5.90
2022-12-25T01:09:56.705Z,5.90
2022-12-25T01:10:06.151Z,5.90
2022-12-25T01:10:15.586Z,5.90
2022-12-25T01:10:25.049Z,5.90
2022-12-25T01:10:34.450Z,5.90
2022-12-25T01:10:43.865Z,5.90
2022-12-25T01:10:53.297Z,5.90
2022-12-25T01:11:02.716Z,5.90
2022-12-25T01:11:12.141Z,5.90
2022-12-25T01:11:21.651Z,5.90
2022-12-25T01:11:31.097Z,5.90
2022-12-25T01:11:40.540Z,5.90
2022-12-25T01:11:49.967Z,5.90
2022-12-25T01:11:59.409Z,5.90
2022-12-25T01:12:08.827Z,5.90
2022-12-25T01:12:27.638Z,5.90
2022-12-25T01:12:37.048Z,5.90
2022-12-25T01:12:46.436Z,5.90
2022-12-25T01:12:55.841Z,5.90
2022-12-25T01:13:05.254Z,5.80
2022-12-25T01:13:14.669Z,5.80
2022-12-25T01:13:24.124Z,5.80
2022-12-25T01:13:33.516Z,5.80
2022-12-25T01:13:42.919Z,5.80
2022-12-25T01:13:52.416Z,5.70
2022-12-25T01:14:01.848Z,5.70
2022-12-25T01:14:11.288Z,5.70
2022-12-25T01:14:20.729Z,5.70
2022-12-25T01:14:30.144Z,5.60
2022-12-25T01:14:39.591Z,5.60
2022-12-25T01:14:49.014Z,5.60
2022-12-25T01:15:07.852Z,5.50
2022-12-25T01:15:17.283Z,5.50
2022-12-25T01:15:26.695Z,5.50
2022-12-25T01:15:36.182Z,5.50
2022-12-25T01:15:45.639Z,5.40
2022-12-25T01:15:55.180Z,5.40
2022-12-25T01:16:04.526Z,5.40
2022-12-25T01:16:13.993Z,5.30
2022-12-25T01:16:23.460Z,5.30
2022-12-25T01:16:32.828Z,5.30
2022-12-25T01:16:42.291Z,5.30
2022-12-25T01:16:51.760Z,5.20
2022-12-25T01:17:01.079Z,5.20
2022-12-25T01:17:10.560Z,5.20
2022-12-25T01:17:20.002Z,5.10
2022-12-25T01:17:29.416Z,5.10
2022-12-25T01:17:38.904Z,5.10
2022-12-25T01:17:57.740Z,5.00
2022-12-25T01:18:08.029Z,5.00
2022-12-25T01:18:16.619Z,5.00
2022-12-25T01:18:26.030Z,5.00
2022-12-25T01:18:35.451Z,4.90
2022-12-25T01:18:44.877Z,4.90
2022-12-25T01:18:54.267Z,4.90
2022-12-25T01:19:03.687Z,4.90
2022-12-25T01:19:13.119Z,4.90
2022-12-25T01:19:22.516Z,4.80
2022-12-25T01:19:31.928Z,4.80
2022-12-25T01:19:41.348Z,4.80
2022-12-25T01:19:50.747Z,4.80
2022-12-25T01:20:00.176Z,4.80
2022-12-25T01:20:09.543Z,4.80
2022-12-25T01:20:18.930Z,4.80
2022-12-25T01:20:37.741Z,4.70
2022-12-25T01:20:47.168Z,4.70
2022-12-25T01:20:56.577Z,4.70
2022-12-25T01:21:06.001Z,4.70
2022-12-25T01:21:15.455Z,4.70
2022-12-25T01:21:24.920Z,4.70
2022-12-25T01:21:34.345Z,4.70
2022-12-25T01:21:43.767Z,4.70
2022-12-25T01:21:53.214Z,4.70
2022-12-25T01:22:02.651Z,4.70
2022-12-25T01:22:12.084Z,4.70
2022-12-25T01:22:21.449Z,4.60
2022-12-25T01:22:30.860Z,4.60
2022-12-25T01:22:40.281Z,4.60
2022-12-25T01:22:49.686Z,4.60
2022-12-25T01:22:59.082Z,4.60
2022-12-25T01:23:17.896Z,4.60
2022-12-25T01:23:27.314Z,4.60
2022-12-25T01:23:36.758Z,4.60
2022-12-25T01:23:46.142Z,4.50
2022-12-25T01:23:55.539Z,4.50
2022-12-25T01:24:04.939Z,4.50
2022-12-25T01:24:14.346Z,4.60
2022-12-25T01:24:23.737Z,4.50
2022-12-25T01:24:33.125Z,4.50
2022-12-25T01:24:42.569Z,4.50
2022-12-25T01:24:51.987Z,4.50
2022-12-25T01:25:01.430Z,4.50
2022-12-25T01:25:10.840Z,4.50
2022-12-25T01:25:20.253Z,4.50
2022-12-25T01:25:29.644Z,4.50
2022-12-25T01:25:39.057Z,4.50
2022-12-25T01:25:57.918Z,4.50
2022-12-25T01:26:07.331Z,4.50
2022-12-25T01:26:16.764Z,4.50
2022-12-25T01:26:26.159Z,4.50
2022-12-25T01:26:35.585Z,4.40
2022-12-25T01:26:45.005Z,4.40
2022-12-25T01:26:54.392Z,4.40
2022-12-25T01:27:03.819Z,4.40
2022-12-25T01:27:13.215Z,4.40
2022-12-25T01:27:22.638Z,4.40
2022-12-25T01:27:32.059Z,4.40
2022-12-25T01:27:41.487Z,4.40
2022-12-25T01:27:50.936Z,4.40
2022-12-25T01:28:00.367Z,4.40
2022-12-25T01:28:09.791Z,4.40
2022-12-25T01:28:19.200Z,4.40
2022-12-25T01:28:38.014Z,4.30
2022-12-25T01:28:47.415Z,4.40
2022-12-25T01:28:56.819Z,4.30
2022-12-25T01:29:06.263Z,4.30
2022-12-25T01:29:15.678Z,4.30
2022-12-25T01:29:25.093Z,4.30
2022-12-25T01:29:34.519Z,4.30
2022-12-25T01:29:43.951Z,4.30
2022-12-25T01:29:53.385Z,4.30
2022-12-25T01:30:02.806Z,4.30
2022-12-25T01:30:12.221Z,4.30
2022-12-25T01:30:21.631Z,4.30
2022-12-25T01:30:31.028Z,4.30
2022-12-25T01:30:40.441Z,4.30
2022-12-25T01:30:49.881Z,4.30
2022-12-25T01:30:59.275Z,4.30
2022-12-25T01:31:18.220Z,4.30
2022-12-25T01:31:27.578Z,4.30
2022-12-25T01:31:37.116Z,4.20
2022-12-25T01:31:46.458Z,4.30
2022-12-25T01:31:55.842Z,4.30
2022-12-25T01:32:05.335Z,4.20
2022-12-25T01:32:14.693Z,4.20
2022-12-25T01:32:24.044Z,4.20
2022-12-25T01:32:33.475Z,4.20
2022-12-25T01:32:42.878Z,4.20
2022-12-25T01:32:52.301Z,4.20
2022-12-25T01:33:01.739Z,4.20
2022-12-25T01:33:11.141Z,4.20
2022-12-25T01:33:20.541Z,4.20
2022-12-25T01:33:29.968Z,4.20
2022-12-25T01:33:39.374Z,4.20
2022-12-25T01:33:48.801Z,4.20
2022-12-25T01:34:07.623Z,4.20
2022-12-25T01:34:17.053Z,4.20
2022-12-25T01:34:26.461Z,4.20
2022-12-25T01:34:35.879Z,4.20
2022-12-25T01:34:49.258Z,4.20
2022-12-25T01:34:56.423Z,4.20
2022-12-25T01:35:04.200Z,4.20
2022-12-25T01:35:13.619Z,4.10
2022-12-25T01:35:23.041Z,4.20
2022-12-25T01:35:32.443Z,4.20
2022-12-25T01:35:41.837Z,4.10
2022-12-25T01:35:51.265Z,4.20
2022-12-25T01:36:00.664Z,4.10
2022-12-25T01:36:10.052Z,4.10
2022-12-25T01:36:19.484Z,4.20
2022-12-25T01:36:28.911Z,4.10
2022-12-25T01:36:47.734Z,4.20
2022-12-25T01:36:57.104Z,4.10
2022-12-25T01:37:06.515Z,4.10
2022-12-25T01:37:16.002Z,4.20
2022-12-25T01:37:25.414Z,4.10
2022-12-25T01:37:34.804Z,4.20
2022-12-25T01:37:44.239Z,4.10
2022-12-25T01:37:53.635Z,4.20
2022-12-25T01:38:03.043Z,4.10
2022-12-25T01:38:12.499Z,4.10
2022-12-25T01:38:21.899Z,4.10
2022-12-25T01:38:31.322Z,4.10
2022-12-25T01:38:40.732Z,4.10
2022-12-25T01:38:50.157Z,4.10
2022-12-25T01:38:59.567Z,4.20
2022-12-25T01:39:08.995Z,4.20
2022-12-25T01:39:27.807Z,4.20
2022-12-25T01:39:37.254Z,4.10
2022-12-25T01:39:46.672Z,4.20
2022-12-25T01:39:56.090Z,4.10
2022-12-25T01:40:05.489Z,4.20
2022-12-25T01:40:14.911Z,4.10
2022-12-25T01:40:24.332Z,4.10
2022-12-25T01:40:33.764Z,4.20
2022-12-25T01:40:43.153Z,4.20
2022-12-25T01:40:52.572Z,4.20
2022-12-25T01:41:01.979Z,4.20
2022-12-25T01:41:11.416Z,4.20
2022-12-25T01:41:20.823Z,4.20
2022-12-25T01:41:30.254Z,4.20
2022-12-25T01:41:39.648Z,4.20
2022-12-25T01:41:49.064Z,4.20
2022-12-25T01:42:07.937Z,4.20
2022-12-25T01:42:17.363Z,4.20
2022-12-25T01:42:26.778Z,4.20
2022-12-25T01:42:36.177Z,4.20
2022-12-25T01:42:45.570Z,4.20
2022-12-25T01:42:55.581Z,4.30
2022-12-25T01:43:05.883Z,4.20
2022-12-25T01:43:18.647Z,4.20
2022-12-25T01:43:24.706Z,4.20
2022-12-25T01:43:34.121Z,4.20
2022-12-25T01:43:43.545Z,4.20
2022-12-25T01:43:52.947Z,4.20
2022-12-25T01:44:02.350Z,4.20
2022-12-25T01:44:11.753Z,4.20
2022-12-25T01:44:21.159Z,4.20
2022-12-25T01:44:30.584Z,4.30
2022-12-25T01:44:39.966Z,4.20
2022-12-25T01:44:49.685Z,4.20
2022-12-25T01:44:59.089Z,4.30
2022-12-25T01:45:17.936Z,4.30
2022-12-25T01:45:27.355Z,4.30
2022-12-25T01:45:36.804Z,4.30
2022-12-25T01:45:46.201Z,4.30
2022-12-25T01:45:55.575Z,4.30
2022-12-25T01:46:05.036Z,4.40
2022-12-25T01:46:14.503Z,4.40
2022-12-25T01:46:23.926Z,4.40
2022-12-25T01:46:33.218Z,4.40
2022-12-25T01:46:42.721Z,4.50
2022-12-25T01:46:52.107Z,4.50
2022-12-25T01:47:01.494Z,4.50
2022-12-25T01:47:10.891Z,4.50
2022-12-25T01:47:20.361Z,4.50
2022-12-25T01:47:29.808Z,4.60
2022-12-25T01:47:39.198Z,4.60
2022-12-25T01:47:58.029Z,4.70
2022-12-25T01:48:07.519Z,4.70
2022-12-25T01:48:16.834Z,4.70
2022-12-25T01:48:26.232Z,4.70
2022-12-25T01:48:35.623Z,4.80
2022-12-25T01:48:44.997Z,4.80
2022-12-25T01:48:54.398Z,4.80
2022-12-25T01:49:03.789Z,4.90
2022-12-25T01:49:13.188Z,4.90
2022-12-25T01:49:22.598Z,4.90
2022-12-25T01:49:31.971Z,5.00
2022-12-25T01:49:41.468Z,5.00
2022-12-25T01:49:50.909Z,5.00
2022-12-25T01:50:00.308Z,5.00
2022-12-25T01:50:09.763Z,5.00
2022-12-25T01:50:19.103Z,5.10
2022-12-25T01:50:37.930Z,5.10
2022-12-25T01:50:47.340Z,5.10
2022-12-25T01:50:56.733Z,5.10
2022-12-25T01:51:06.127Z,5.10
2022-12-25T01:51:15.552Z,5.20
2022-12-25T01:51:24.969Z,5.20
2022-12-25T01:51:34.365Z,5.20
2022-12-25T01:51:43.771Z,5.20
2022-12-25T01:51:53.163Z,5.20
2022-12-25T01:52:02.559Z,5.30
2022-12-25T01:52:11.977Z,5.30
2022-12-25T01:52:24.149Z,5.30
2022-12-25T01:52:30.827Z,5.30
2022-12-25T01:52:40.224Z,5.30
2022-12-25T01:52:49.655Z,5.30
2022-12-25T01:52:59.032Z,5.40
2022-12-25T01:53:17.853Z,5.40
2022-12-25T01:53:27.237Z,5.40
2022-12-25T01:53:36.630Z,5.40
2022-12-25T01:53:46.027Z,5.50
2022-12-25T01:53:55.423Z,5.50
2022-12-25T01:54:04.848Z,5.50
2022-12-25T01:54:14.276Z,5.50
2022-12-25T01:54:23.643Z,5.50
2022-12-25T01:54:33.057Z,5.50
2022-12-25T01:54:42.490Z,5.50
2022-12-25T01:54:51.929Z,5.60
2022-12-25T01:55:01.326Z,5.60
2022-12-25T01:55:10.755Z,5.60
2022-12-25T01:55:20.135Z,5.60
2022-12-25T01:55:29.537Z,5.60
2022-12-25T01:55:38.946Z,5.60
2022-12-25T01:55:57.743Z,5.70
2022-12-25T01:56:07.154Z,5.70
2022-12-25T01:56:16.539Z,5.70
2022-12-25T01:56:25.942Z,5.70
2022-12-25T01:56:35.323Z,5.70
2022-12-25T01:56:44.728Z,5.80
2022-12-25T01:56:54.127Z,5.80
2022-12-25T01:57:03.557Z,5.80
2022-12-25T01:57:12.956Z,5.80
2022-12-25T01:57:22.378Z,5.80
2022-12-25T01:57:31.764Z,5.80
2022-12-25T01:57:41.166Z,5.80
2022-12-25T01:57:50.737Z,5.80
2022-12-25T01:58:00.159Z,5.80
2022-12-25T01:58:09.533Z,5.80
2022-12-25T01:58:18.935Z,5.80
2022-12-25T01:58:37.780Z,5.90
2022-12-25T01:58:47.201Z,5.90
2022-12-25T01:58:56.619Z,5.90
2022-12-25T01:59:06.019Z,5.90
2022-12-25T01:59:15.427Z,5.90
2022-12-25T01:59:24.808Z,5.90
2022-12-25T01:59:34.196Z,5.90
2022-12-25T01:59:43.611Z,5.90
2022-12-25T01:59:52.988Z,5.90
2022-12-25T02:00:02.642Z,5.90
2022-12-25T02:00:12.045Z,5.90
2022-12-25T02:00:21.451Z,5.90
2022-12-25T02:00:30.850Z,5.90
2022-12-25T02:00:40.356Z,5.90
2022-12-25T02:00:49.766Z,5.90
2022-12-25T02:00:59.197Z,5.90
2022-12-25T02:01:18.112Z,5.90
2022-12-25T02:01:27.650Z,5.90
2022-12-25T02:01:36.906Z,5.90
2022-12-25T02:01:46.498Z,6.00
2022-12-25T02:01:55.746Z,6.00
2022-12-25T02:02:05.130Z,6.00
2022-12-25T02:02:14.605Z,6.00
2022-12-25T02:02:23.976Z,6.00
2022-12-25T02:02:33.438Z,6.00
2022-12-25T02:02:42.850Z,6.00
2022-12-25T02:02:52.307Z,6.00
2022-12-25T02:03:01.657Z,6.00
2022-12-25T02:03:11.074Z,6.00
2022-12-25T02:03:20.524Z,6.00
2022-12-25T02:03:29.841Z,6.00
2022-12-25T02:03:39.155Z,6.00
2022-12-25T02:03:57.982Z,6.00
2022-12-25T02:04:07.403Z,6.00
2022-12-25T02:04:16.825Z,6.00
2022-12-25T02:04:26.247Z,6.00
2022-12-25T02:04:35.689Z,6.00
2022-12-25T02:04:45.118Z,6.00
2022-12-25T02:04:54.734Z,6.00
2022-12-25T02:05:04.104Z,6.00
2022-12-25T02:05:13.518Z,6.10
2022-12-25T02:05:22.933Z,6.10
2022-12-25T02:05:32.366Z,6.10
2022-12-25T02:05:41.781Z,6.10
2022-12-25T02:05:51.168Z,6.10
2022-12-25T02:06:00.572Z,6.10
2022-12-25T02:06:09.972Z,6.10
2022-12-25T02:06:19.394Z,6.10
2022-12-25T02:06:28.784Z,6.10
2022-12-25T02:06:47.575Z,6.10
2022-12-25T02:06:56.990Z,6.10
2022-12-25T02:07:06.375Z,6.10
2022-12-25T02:07:15.778Z,6.10
2022-12-25T02:07:25.206Z,6.10
2022-12-25T02:07:34.589Z,6.10
2022-12-25T02:07:44.014Z,6.10
2022-12-25T02:07:53.407Z,6.10
2022-12-25T02:08:02.827Z,6.10
2022-12-25T02:08:12.263Z,6.10
2022-12-25T02:08:21.673Z,6.10
2022-12-25T02:08:31.047Z,6.10
2022-12-25T02:08:40.440Z,6.10
2022-12-25T02:08:49.852Z,6.10
2022-12-25T02:08:59.260Z,6.10
2022-12-25T02:09:18.124Z,6.10
2022-12-25T02:09:27.533Z,6.10
2022-12-25T02:09:36.964Z,6.10
2022-12-25T02:09:46.357Z,6.10
2022-12-25T02:09:55.789Z,6.10
2022-12-25T02:10:05.196Z,6.10
2022-12-25T02:10:14.602Z,6.10
2022-12-25T02:10:24.023Z,6.10
2022-12-25T02:10:33.436Z,6.10
2022-12-25T02:10:42.864Z,6.10
2022-12-25T02:10:52.269Z,6.10
2022-12-25T02:11:01.716Z,6.10
2022-12-25T02:11:11.143Z,6.10
2022-12-25T02:11:20.609Z,6.10
2022-12-25T02:11:30.015Z,6.10
2022-12-25T02:11:39.426Z,6.00
2022-12-25T02:11:48.826Z,6.00
2022-12-25T02:12:07.636Z,6.00
2022-12-25T02:12:17.059Z,6.00
2022-12-25T02:12:26.475Z,6.00
2022-12-25T02:12:35.901Z,5.90
2022-12-25T02:12:45.370Z,5.90
2022-12-25T02:12:54.745Z,5.90
2022-12-25T02:13:04.231Z,5.90
2022-12-25T02:13:13.648Z,5.90